Date,TemperatureHighF,TemperatureAvgF,TemperatureLowF,DewpointHighF,DewpointAvgF,DewpointLowF,HumidityHigh,HumidityAvg,HumidityLow,PressureMaxIn,PressureMinIn,WindSpeedMaxMPH,WindSpeedAvgMPH,GustSpeedMaxMPH,PrecipitationSumIn
2013-4-1,62.0,54.2,47.0,46.0,39.8,37.0,83,59,41,30.12,29.98,29,15,43,0.07
2013-4-2,70.0,59.1,52.0,45.0,41.0,37.0,65,52,32,30.13,29.98,23,14,39,0.01
2013-4-3,80.0,66.2,51.0,46.0,37.3,27.0,63,38,15,30.15,30.02,14,3,22,0.00
2013-4-4,71.0,64.2,58.0,49.0,42.9,37.0,68,47,33,30.09,30.00,25,11,34,0.00
2013-4-5,66.0,59.0,55.0,48.0,43.6,36.0,70,57,44,30.06,29.91,33,17,51,0.01
2013-4-6,66.0,58.3,53.0,44.0,40.2,31.0,64,51,33,30.08,29.89,36,21,57,0.01
2013-4-7,69.0,59.4,54.0,43.0,40.4,37.0,64,50,31,30.02,29.77,34,17,55,0.00
2013-4-8,57.0,48.0,41.0,43.0,35.4,30.0,78,62,51,29.83,29.51,45,26,65,0.04
2013-4-9,63.0,53.4,44.0,35.0,27.7,21.0,66,39,23,30.11,29.83,23,12,35,0.02
2013-4-10,76.0,60.6,43.0,33.0,21.0,14.0,36,23,11,30.19,29.98,24,8,41,0.00
2013-4-11,77.0,66.0,59.0,45.0,38.1,28.0,54,37,26,30.01,29.76,27,16,40,0.00
2013-4-12,81.0,67.9,54.0,46.0,40.4,32.0,58,40,17,29.93,29.80,18,8,31,0.00
2013-4-13,75.0,67.9,59.0,45.0,39.2,31.0,55,37,22,29.87,29.73,25,16,35,0.00
2013-4-14,70.0,63.2,57.0,44.0,39.0,31.0,53,41,32,29.79,29.68,31,14,49,0.00
2013-4-15,61.0,53.2,45.0,40.0,35.6,29.0,72,53,31,29.84,29.70,25,15,38,0.00
2013-4-16,54.0,46.4,37.0,31.0,26.7,21.0,66,48,30,29.98,29.78,24,14,37,0.00
2013-4-17,60.0,51.0,40.0,25.0,21.5,16.0,50,32,21,30.20,29.98,17,8,29,0.00
2013-4-18,67.0,55.7,43.0,22.0,12.4,7.0,29,19,10,30.31,30.21,9,3,17,0.00
2013-4-19,76.0,61.7,46.0,29.0,20.9,11.0,33,22,9,30.26,29.97,27,8,46,0.00
2013-4-20,81.0,69.4,61.0,42.0,31.9,24.0,38,26,12,30.10,29.97,24,11,43,0.00
2013-4-21,85.0,71.8,58.0,39.0,32.6,27.0,35,25,13,30.06,29.94,20,7,33,0.00
2013-4-22,83.0,74.0,66.0,37.0,31.8,19.0,31,22,15,30.00,29.80,24,12,46,0.00
2013-4-23,78.0,69.2,60.0,42.0,26.0,17.0,41,22,11,30.06,29.80,24,7,46,0.00
2013-4-24,80.0,69.1,54.0,42.0,26.7,15.0,45,23,9,29.97,29.82,14,7,25,0.00
2013-4-25,77.0,65.5,50.0,44.0,40.5,34.0,67,41,22,30.02,29.87,28,10,42,0.00
2013-4-26,84.0,69.9,60.0,47.0,37.7,19.0,49,35,10,30.18,30.02,28,10,41,0.00
2013-4-27,89.0,75.2,62.0,46.0,37.8,21.0,47,29,9,30.21,30.04,21,10,33,0.00
2013-4-28,89.0,77.1,68.0,47.0,41.1,32.0,43,29,14,30.05,29.89,23,14,37,0.00
2013-4-29,88.0,77.9,70.0,45.0,39.3,28.0,36,26,19,29.92,29.75,25,15,44,0.00
2013-4-30,82.0,74.6,68.0,47.0,41.2,33.0,41,31,17,29.78,29.69,31,16,54,0.00